sensor_id;sensor_type;location;lat;lon;timestamp;P1;durP1;ratioP1;P2;durP2;ratioP2
11616;SDS011;5864;52.998;9.068;2023-02-28T00:02:24;9.80;;;5.73;;
11616;SDS011;5864;52.998;9.068;2023-02-28T00:05:10;7.33;;;5.07;;
11616;SDS011;5864;52.998;9.068;2023-02-28T00:07:57;8.07;;;5.63;;
11616;SDS011;5864;52.998;9.068;2023-02-28T00:10:43;9.13;;;5.60;;
11616;SDS011;5864;52.998;9.068;2023-02-28T00:13:29;9.23;;;5.87;;
11616;SDS011;5864;52.998;9.068;2023-02-28T00:16:17;8.33;;;5.60;;
11616;SDS011;5864;52.998;9.068;2023-02-28T00:19:04;8.20;;;5.27;;
11616;SDS011;5864;52.998;9.068;2023-02-28T00:21:51;8.47;;;5.40;;
11616;SDS011;5864;52.998;9.068;2023-02-28T00:24:37;11.77;;;5.90;;
11616;SDS011;5864;52.998;9.068;2023-02-28T00:27:23;6.67;;;5.60;;
11616;SDS011;5864;52.998;9.068;2023-02-28T00:30:09;7.50;;;5.20;;
11616;SDS011;5864;52.998;9.068;2023-02-28T00:32:58;9.17;;;5.07;;
11616;SDS011;5864;52.998;9.068;2023-02-28T00:35:44;9.20;;;5.40;;
11616;SDS011;5864;52.998;9.068;2023-02-28T00:38:30;8.57;;;5.33;;
11616;SDS011;5864;52.998;9.068;2023-02-28T00:41:16;6.97;;;4.47;;
11616;SDS011;5864;52.998;9.068;2023-02-28T00:44:01;12.00;;;6.93;;
11616;SDS011;5864;52.998;9.068;2023-02-28T00:46:48;5.40;;;3.97;;
11616;SDS011;5864;52.998;9.068;2023-02-28T00:49:36;7.80;;;4.40;;
11616;SDS011;5864;52.998;9.068;2023-02-28T00:52:22;8.97;;;4.67;;
11616;SDS011;5864;52.998;9.068;2023-02-28T00:55:08;9.53;;;5.17;;
11616;SDS011;5864;52.998;9.068;2023-02-28T00:57:54;9.03;;;5.90;;
11616;SDS011;5864;52.998;9.068;2023-02-28T01:00:40;11.10;;;6.37;;
11616;SDS011;5864;52.998;9.068;2023-02-28T01:03:25;8.90;;;6.10;;
11616;SDS011;5864;52.998;9.068;2023-02-28T01:06:12;10.40;;;6.20;;
11616;SDS011;5864;52.998;9.068;2023-02-28T01:08:58;10.17;;;5.90;;
11616;SDS011;5864;52.998;9.068;2023-02-28T01:11:44;11.23;;;5.97;;
11616;SDS011;5864;52.998;9.068;2023-02-28T01:14:30;10.43;;;6.63;;
11616;SDS011;5864;52.998;9.068;2023-02-28T01:17:16;10.40;;;6.37;;
11616;SDS011;5864;52.998;9.068;2023-02-28T01:20:01;9.73;;;5.90;;
11616;SDS011;5864;52.998;9.068;2023-02-28T01:22:49;9.47;;;5.70;;
11616;SDS011;5864;52.998;9.068;2023-02-28T01:25:35;10.33;;;6.47;;
11616;SDS011;5864;52.998;9.068;2023-02-28T01:28:20;13.70;;;6.13;;
11616;SDS011;5864;52.998;9.068;2023-02-28T01:31:06;8.80;;;5.70;;
11616;SDS011;5864;52.998;9.068;2023-02-28T01:33:53;10.37;;;5.37;;
11616;SDS011;5864;52.998;9.068;2023-02-28T01:36:39;8.10;;;5.47;;
11616;SDS011;5864;52.998;9.068;2023-02-28T01:39:26;8.57;;;5.90;;
11616;SDS011;5864;52.998;9.068;2023-02-28T01:42:12;9.87;;;5.47;;
11616;SDS011;5864;52.998;9.068;2023-02-28T01:45:03;9.50;;;5.30;;
11616;SDS011;5864;52.998;9.068;2023-02-28T01:47:59;7.13;;;4.87;;
11616;SDS011;5864;52.998;9.068;2023-02-28T01:50:48;9.10;;;5.33;;
11616;SDS011;5864;52.998;9.068;2023-02-28T01:53:36;8.73;;;5.33;;
11616;SDS011;5864;52.998;9.068;2023-02-28T01:56:32;7.43;;;5.03;;
11616;SDS011;5864;52.998;9.068;2023-02-28T01:59:21;8.13;;;5.20;;
11616;SDS011;5864;52.998;9.068;2023-02-28T02:02:12;4.80;;;4.07;;
11616;SDS011;5864;52.998;9.068;2023-02-28T02:04:59;9.13;;;5.07;;
11616;SDS011;5864;52.998;9.068;2023-02-28T02:07:50;10.60;;;4.77;;
11616;SDS011;5864;52.998;9.068;2023-02-28T02:10:40;9.27;;;5.23;;
11616;SDS011;5864;52.998;9.068;2023-02-28T02:16:53;5.77;;;4.53;;
11616;SDS011;5864;52.998;9.068;2023-02-28T02:33:22;6.37;;;4.20;;
11616;SDS011;5864;52.998;9.068;2023-02-28T02:36:32;6.27;;;4.27;;
11616;SDS011;5864;52.998;9.068;2023-02-28T02:39:22;5.27;;;4.37;;
11616;SDS011;5864;52.998;9.068;2023-02-28T02:42:16;9.90;;;4.37;;
11616;SDS011;5864;52.998;9.068;2023-02-28T02:45:06;7.70;;;4.17;;
11616;SDS011;5864;52.998;9.068;2023-02-28T02:47:56;9.93;;;4.27;;
11616;SDS011;5864;52.998;9.068;2023-02-28T02:50:46;7.35;;;4.10;;
11616;SDS011;5864;52.998;9.068;2023-02-28T02:53:40;8.40;;;4.50;;
11616;SDS011;5864;52.998;9.068;2023-02-28T02:56:30;8.30;;;4.23;;
11616;SDS011;5864;52.998;9.068;2023-02-28T02:59:18;7.80;;;3.87;;
11616;SDS011;5864;52.998;9.068;2023-02-28T03:02:08;10.00;;;4.03;;
11616;SDS011;5864;52.998;9.068;2023-02-28T03:04:58;9.15;;;4.13;;
11616;SDS011;5864;52.998;9.068;2023-02-28T03:07:46;7.53;;;4.70;;
11616;SDS011;5864;52.998;9.068;2023-02-28T03:10:35;5.00;;;3.80;;
11616;SDS011;5864;52.998;9.068;2023-02-28T03:16:55;5.00;;;3.47;;
11616;SDS011;5864;52.998;9.068;2023-02-28T03:19:52;9.15;;;4.15;;
11616;SDS011;5864;52.998;9.068;2023-02-28T03:22:45;5.47;;;3.93;;
11616;SDS011;5864;52.998;9.068;2023-02-28T03:25:40;7.43;;;3.50;;
11616;SDS011;5864;52.998;9.068;2023-02-28T03:28:39;6.73;;;4.00;;
11616;SDS011;5864;52.998;9.068;2023-02-28T03:31:30;5.47;;;3.63;;
11616;SDS011;5864;52.998;9.068;2023-02-28T03:34:19;7.77;;;3.70;;
11616;SDS011;5864;52.998;9.068;2023-02-28T03:37:11;7.07;;;4.00;;
11616;SDS011;5864;52.998;9.068;2023-02-28T03:40:02;4.90;;;3.70;;
11616;SDS011;5864;52.998;9.068;2023-02-28T03:42:55;6.07;;;3.97;;
11616;SDS011;5864;52.998;9.068;2023-02-28T03:45:45;5.97;;;3.70;;
11616;SDS011;5864;52.998;9.068;2023-02-28T03:48:35;4.67;;;3.93;;
11616;SDS011;5864;52.998;9.068;2023-02-28T03:51:25;7.03;;;3.83;;
11616;SDS011;5864;52.998;9.068;2023-02-28T03:54:15;7.03;;;4.05;;
11616;SDS011;5864;52.998;9.068;2023-02-28T03:57:07;4.83;;;3.43;;
11616;SDS011;5864;52.998;9.068;2023-02-28T04:00:00;5.80;;;3.53;;
11616;SDS011;5864;52.998;9.068;2023-02-28T04:02:49;4.93;;;3.60;;
11616;SDS011;5864;52.998;9.068;2023-02-28T04:05:43;6.50;;;3.60;;
11616;SDS011;5864;52.998;9.068;2023-02-28T04:08:33;5.93;;;3.77;;
11616;SDS011;5864;52.998;9.068;2023-02-28T04:11:21;4.78;;;3.60;;
11616;SDS011;5864;52.998;9.068;2023-02-28T04:14:08;5.83;;;3.70;;
11616;SDS011;5864;52.998;9.068;2023-02-28T04:16:57;5.07;;;3.60;;
11616;SDS011;5864;52.998;9.068;2023-02-28T04:19:42;6.13;;;3.53;;
11616;SDS011;5864;52.998;9.068;2023-02-28T04:22:28;5.15;;;3.50;;
11616;SDS011;5864;52.998;9.068;2023-02-28T04:25:13;6.25;;;3.78;;
11616;SDS011;5864;52.998;9.068;2023-02-28T04:27:59;5.45;;;3.70;;
11616;SDS011;5864;52.998;9.068;2023-02-28T04:30:45;7.35;;;3.65;;
11616;SDS011;5864;52.998;9.068;2023-02-28T04:33:32;5.15;;;3.53;;
11616;SDS011;5864;52.998;9.068;2023-02-28T04:36:18;5.40;;;4.00;;
11616;SDS011;5864;52.998;9.068;2023-02-28T04:39:04;6.10;;;3.92;;
11616;SDS011;5864;52.998;9.068;2023-02-28T04:41:49;5.22;;;3.78;;
11616;SDS011;5864;52.998;9.068;2023-02-28T04:44:35;5.30;;;3.75;;
11616;SDS011;5864;52.998;9.068;2023-02-28T04:47:21;8.45;;;3.80;;
11616;SDS011;5864;52.998;9.068;2023-02-28T04:50:08;8.65;;;4.22;;
11616;SDS011;5864;52.998;9.068;2023-02-28T04:52:54;5.00;;;3.40;;
11616;SDS011;5864;52.998;9.068;2023-02-28T04:55:41;6.88;;;3.65;;
11616;SDS011;5864;52.998;9.068;2023-02-28T04:58:26;5.57;;;3.30;;
11616;SDS011;5864;52.998;9.068;2023-02-28T05:01:16;4.63;;;3.65;;
11616;SDS011;5864;52.998;9.068;2023-02-28T05:04:04;6.88;;;4.40;;
11616;SDS011;5864;52.998;9.068;2023-02-28T05:06:51;6.25;;;4.05;;
11616;SDS011;5864;52.998;9.068;2023-02-28T05:09:37;4.75;;;3.50;;
11616;SDS011;5864;52.998;9.068;2023-02-28T05:12:22;7.28;;;3.75;;
11616;SDS011;5864;52.998;9.068;2023-02-28T05:15:08;6.70;;;4.03;;
11616;SDS011;5864;52.998;9.068;2023-02-28T05:17:58;7.18;;;3.92;;
11616;SDS011;5864;52.998;9.068;2023-02-28T05:20:44;6.65;;;3.67;;
11616;SDS011;5864;52.998;9.068;2023-02-28T05:23:31;4.18;;;3.47;;
11616;SDS011;5864;52.998;9.068;2023-02-28T05:26:17;6.63;;;3.78;;
11616;SDS011;5864;52.998;9.068;2023-02-28T05:29:02;6.32;;;3.85;;
11616;SDS011;5864;52.998;9.068;2023-02-28T05:31:48;4.50;;;3.70;;
11616;SDS011;5864;52.998;9.068;2023-02-28T05:34:34;5.88;;;3.72;;
11616;SDS011;5864;52.998;9.068;2023-02-28T05:37:20;5.93;;;3.90;;
11616;SDS011;5864;52.998;9.068;2023-02-28T05:40:08;8.70;;;3.65;;
11616;SDS011;5864;52.998;9.068;2023-02-28T05:42:55;6.28;;;3.95;;
11616;SDS011;5864;52.998;9.068;2023-02-28T05:45:41;6.25;;;3.75;;
11616;SDS011;5864;52.998;9.068;2023-02-28T05:48:27;5.80;;;3.70;;
11616;SDS011;5864;52.998;9.068;2023-02-28T05:51:13;7.67;;;4.60;;
11616;SDS011;5864;52.998;9.068;2023-02-28T05:54:00;6.45;;;4.53;;
11616;SDS011;5864;52.998;9.068;2023-02-28T05:56:47;7.45;;;4.13;;
11616;SDS011;5864;52.998;9.068;2023-02-28T05:59:33;6.45;;;3.90;;
11616;SDS011;5864;52.998;9.068;2023-02-28T06:02:23;6.45;;;3.83;;
11616;SDS011;5864;52.998;9.068;2023-02-28T06:05:10;6.47;;;3.92;;
11616;SDS011;5864;52.998;9.068;2023-02-28T06:07:59;6.20;;;4.05;;
11616;SDS011;5864;52.998;9.068;2023-02-28T06:10:45;6.50;;;4.50;;
11616;SDS011;5864;52.998;9.068;2023-02-28T06:13:32;7.18;;;3.78;;
11616;SDS011;5864;52.998;9.068;2023-02-28T06:16:18;7.15;;;4.35;;
11616;SDS011;5864;52.998;9.068;2023-02-28T06:19:04;7.38;;;4.18;;
11616;SDS011;5864;52.998;9.068;2023-02-28T06:21:50;6.97;;;4.43;;
11616;SDS011;5864;52.998;9.068;2023-02-28T06:24:36;7.53;;;3.88;;
11616;SDS011;5864;52.998;9.068;2023-02-28T06:27:21;6.95;;;4.72;;
11616;SDS011;5864;52.998;9.068;2023-02-28T06:30:09;6.82;;;4.55;;
11616;SDS011;5864;52.998;9.068;2023-02-28T06:32:55;10.52;;;5.28;;
11616;SDS011;5864;52.998;9.068;2023-02-28T06:35:43;7.10;;;5.05;;
11616;SDS011;5864;52.998;9.068;2023-02-28T06:38:29;7.82;;;4.68;;
11616;SDS011;5864;52.998;9.068;2023-02-28T06:41:14;7.65;;;5.25;;
11616;SDS011;5864;52.998;9.068;2023-02-28T06:44:00;6.25;;;4.20;;
11616;SDS011;5864;52.998;9.068;2023-02-28T06:46:47;7.23;;;4.30;;
11616;SDS011;5864;52.998;9.068;2023-02-28T06:49:33;9.55;;;4.25;;
11616;SDS011;5864;52.998;9.068;2023-02-28T06:52:20;7.20;;;3.92;;
11616;SDS011;5864;52.998;9.068;2023-02-28T06:55:06;7.90;;;4.25;;
11616;SDS011;5864;52.998;9.068;2023-02-28T06:57:52;5.47;;;3.73;;
11616;SDS011;5864;52.998;9.068;2023-02-28T07:00:38;8.30;;;4.30;;
11616;SDS011;5864;52.998;9.068;2023-02-28T07:03:25;6.47;;;4.10;;
11616;SDS011;5864;52.998;9.068;2023-02-28T07:06:10;7.00;;;4.50;;
11616;SDS011;5864;52.998;9.068;2023-02-28T07:08:56;7.00;;;4.10;;
11616;SDS011;5864;52.998;9.068;2023-02-28T07:11:41;4.83;;;3.93;;
11616;SDS011;5864;52.998;9.068;2023-02-28T07:14:27;6.38;;;3.70;;
11616;SDS011;5864;52.998;9.068;2023-02-28T07:17:13;7.07;;;4.65;;
11616;SDS011;5864;52.998;9.068;2023-02-28T07:20:00;7.05;;;3.85;;
11616;SDS011;5864;52.998;9.068;2023-02-28T07:22:48;5.53;;;4.10;;
11616;SDS011;5864;52.998;9.068;2023-02-28T07:25:39;6.45;;;4.40;;
11616;SDS011;5864;52.998;9.068;2023-02-28T07:28:25;5.80;;;3.93;;
11616;SDS011;5864;52.998;9.068;2023-02-28T07:31:11;6.80;;;4.20;;
11616;SDS011;5864;52.998;9.068;2023-02-28T07:33:58;6.23;;;3.70;;
11616;SDS011;5864;52.998;9.068;2023-02-28T07:36:45;5.77;;;3.90;;
11616;SDS011;5864;52.998;9.068;2023-02-28T07:39:31;5.73;;;3.90;;
11616;SDS011;5864;52.998;9.068;2023-02-28T07:42:17;6.10;;;4.27;;
11616;SDS011;5864;52.998;9.068;2023-02-28T07:45:03;6.03;;;4.40;;
11616;SDS011;5864;52.998;9.068;2023-02-28T07:47:49;6.17;;;3.87;;
11616;SDS011;5864;52.998;9.068;2023-02-28T07:50:35;5.17;;;3.40;;
11616;SDS011;5864;52.998;9.068;2023-02-28T07:53:22;6.10;;;3.50;;
11616;SDS011;5864;52.998;9.068;2023-02-28T07:56:09;5.60;;;3.70;;
11616;SDS011;5864;52.998;9.068;2023-02-28T07:58:55;4.00;;;3.10;;
11616;SDS011;5864;52.998;9.068;2023-02-28T08:01:41;6.40;;;3.80;;
11616;SDS011;5864;52.998;9.068;2023-02-28T08:04:28;4.97;;;3.53;;
11616;SDS011;5864;52.998;9.068;2023-02-28T08:07:16;4.70;;;3.63;;
11616;SDS011;5864;52.998;9.068;2023-02-28T08:10:04;4.07;;;3.40;;
11616;SDS011;5864;52.998;9.068;2023-02-28T08:12:50;3.97;;;3.40;;
11616;SDS011;5864;52.998;9.068;2023-02-28T08:15:36;5.73;;;3.60;;
11616;SDS011;5864;52.998;9.068;2023-02-28T08:18:22;3.70;;;3.30;;
11616;SDS011;5864;52.998;9.068;2023-02-28T08:21:07;4.87;;;3.60;;
11616;SDS011;5864;52.998;9.068;2023-02-28T08:23:54;4.37;;;3.30;;
11616;SDS011;5864;52.998;9.068;2023-02-28T08:26:42;5.33;;;3.60;;
11616;SDS011;5864;52.998;9.068;2023-02-28T08:29:28;4.50;;;3.53;;
11616;SDS011;5864;52.998;9.068;2023-02-28T08:32:14;6.83;;;3.17;;
11616;SDS011;5864;52.998;9.068;2023-02-28T08:35:00;3.87;;;3.33;;
11616;SDS011;5864;52.998;9.068;2023-02-28T08:37:47;4.00;;;3.10;;
11616;SDS011;5864;52.998;9.068;2023-02-28T08:40:33;3.37;;;2.57;;
11616;SDS011;5864;52.998;9.068;2023-02-28T08:43:19;5.40;;;3.30;;
11616;SDS011;5864;52.998;9.068;2023-02-28T08:46:05;4.23;;;3.00;;
11616;SDS011;5864;52.998;9.068;2023-02-28T08:48:51;4.57;;;2.70;;
11616;SDS011;5864;52.998;9.068;2023-02-28T08:51:38;4.00;;;2.53;;
11616;SDS011;5864;52.998;9.068;2023-02-28T08:54:24;4.63;;;2.70;;
11616;SDS011;5864;52.998;9.068;2023-02-28T08:57:12;3.97;;;2.90;;
11616;SDS011;5864;52.998;9.068;2023-02-28T09:00:00;5.40;;;2.67;;
11616;SDS011;5864;52.998;9.068;2023-02-28T09:02:48;4.40;;;2.67;;
11616;SDS011;5864;52.998;9.068;2023-02-28T09:05:33;3.43;;;2.30;;
11616;SDS011;5864;52.998;9.068;2023-02-28T09:08:19;3.43;;;2.50;;
11616;SDS011;5864;52.998;9.068;2023-02-28T09:11:05;4.57;;;2.53;;
11616;SDS011;5864;52.998;9.068;2023-02-28T09:13:51;3.13;;;2.10;;
11616;SDS011;5864;52.998;9.068;2023-02-28T09:16:38;3.37;;;2.73;;
11616;SDS011;5864;52.998;9.068;2023-02-28T09:19:24;4.37;;;2.90;;
11616;SDS011;5864;52.998;9.068;2023-02-28T09:22:10;4.13;;;2.70;;
11616;SDS011;5864;52.998;9.068;2023-02-28T09:24:56;3.33;;;2.50;;
11616;SDS011;5864;52.998;9.068;2023-02-28T09:27:41;2.30;;;2.10;;
11616;SDS011;5864;52.998;9.068;2023-02-28T09:30:27;3.60;;;2.57;;
11616;SDS011;5864;52.998;9.068;2023-02-28T09:33:15;2.90;;;2.20;;
11616;SDS011;5864;52.998;9.068;2023-02-28T09:36:04;3.47;;;2.20;;
11616;SDS011;5864;52.998;9.068;2023-02-28T09:38:50;4.07;;;1.97;;
11616;SDS011;5864;52.998;9.068;2023-02-28T09:41:37;2.13;;;1.67;;
11616;SDS011;5864;52.998;9.068;2023-02-28T09:44:31;3.93;;;2.00;;
11616;SDS011;5864;52.998;9.068;2023-02-28T09:47:27;2.23;;;2.03;;
11616;SDS011;5864;52.998;9.068;2023-02-28T09:50:21;2.37;;;1.67;;
11616;SDS011;5864;52.998;9.068;2023-02-28T09:53:18;1.70;;;1.60;;
11616;SDS011;5864;52.998;9.068;2023-02-28T09:56:07;2.17;;;1.47;;
11616;SDS011;5864;52.998;9.068;2023-02-28T09:58:57;2.00;;;1.50;;
11616;SDS011;5864;52.998;9.068;2023-02-28T10:01:49;1.57;;;1.40;;
11616;SDS011;5864;52.998;9.068;2023-02-28T10:04:42;2.23;;;1.20;;
11616;SDS011;5864;52.998;9.068;2023-02-28T10:07:41;1.93;;;1.20;;
11616;SDS011;5864;52.998;9.068;2023-02-28T10:10:43;1.30;;;1.20;;
11616;SDS011;5864;52.998;9.068;2023-02-28T10:13:33;2.13;;;1.10;;
11616;SDS011;5864;52.998;9.068;2023-02-28T10:16:22;2.17;;;1.33;;
11616;SDS011;5864;52.998;9.068;2023-02-28T10:19:12;1.27;;;1.17;;
11616;SDS011;5864;52.998;9.068;2023-02-28T10:22:02;1.73;;;1.23;;
11616;SDS011;5864;52.998;9.068;2023-02-28T10:24:53;2.60;;;1.37;;
11616;SDS011;5864;52.998;9.068;2023-02-28T10:27:44;3.10;;;1.53;;
11616;SDS011;5864;52.998;9.068;2023-02-28T10:30:30;1.70;;;1.50;;
11616;SDS011;5864;52.998;9.068;2023-02-28T10:33:20;1.40;;;1.30;;
11616;SDS011;5864;52.998;9.068;2023-02-28T10:36:08;1.80;;;1.60;;
11616;SDS011;5864;52.998;9.068;2023-02-28T10:39:00;2.87;;;1.60;;
11616;SDS011;5864;52.998;9.068;2023-02-28T10:41:47;2.07;;;1.40;;
11616;SDS011;5864;52.998;9.068;2023-02-28T10:44:32;1.70;;;1.40;;
11616;SDS011;5864;52.998;9.068;2023-02-28T10:47:18;1.53;;;1.37;;
11616;SDS011;5864;52.998;9.068;2023-02-28T10:50:05;2.37;;;1.70;;
11616;SDS011;5864;52.998;9.068;2023-02-28T10:52:50;3.13;;;1.53;;
11616;SDS011;5864;52.998;9.068;2023-02-28T10:55:37;2.80;;;1.70;;
11616;SDS011;5864;52.998;9.068;2023-02-28T10:58:25;1.97;;;1.60;;
11616;SDS011;5864;52.998;9.068;2023-02-28T11:01:12;2.07;;;1.37;;
11616;SDS011;5864;52.998;9.068;2023-02-28T11:04:00;2.30;;;1.60;;
11616;SDS011;5864;52.998;9.068;2023-02-28T11:06:45;2.17;;;1.50;;
11616;SDS011;5864;52.998;9.068;2023-02-28T11:09:32;2.27;;;1.30;;
11616;SDS011;5864;52.998;9.068;2023-02-28T11:12:20;1.70;;;1.60;;
11616;SDS011;5864;52.998;9.068;2023-02-28T11:15:18;3.40;;;1.40;;
11616;SDS011;5864;52.998;9.068;2023-02-28T11:18:14;1.90;;;1.50;;
11616;SDS011;5864;52.998;9.068;2023-02-28T11:21:07;1.50;;;1.40;;
11616;SDS011;5864;52.998;9.068;2023-02-28T11:23:56;2.07;;;1.27;;
11616;SDS011;5864;52.998;9.068;2023-02-28T11:26:47;2.33;;;1.50;;
11616;SDS011;5864;52.998;9.068;2023-02-28T11:29:34;1.60;;;1.50;;
11616;SDS011;5864;52.998;9.068;2023-02-28T11:32:29;3.80;;;1.70;;
11616;SDS011;5864;52.998;9.068;2023-02-28T11:35:17;1.60;;;1.43;;
11616;SDS011;5864;52.998;9.068;2023-02-28T11:38:09;2.33;;;1.50;;
11616;SDS011;5864;52.998;9.068;2023-02-28T11:41:11;7.43;;;4.30;;
11616;SDS011;5864;52.998;9.068;2023-02-28T11:44:15;1.50;;;1.40;;
11616;SDS011;5864;52.998;9.068;2023-02-28T11:47:09;6.80;;;4.00;;
11616;SDS011;5864;52.998;9.068;2023-02-28T11:50:07;2.47;;;1.90;;
11616;SDS011;5864;52.998;9.068;2023-02-28T11:53:05;2.63;;;1.33;;
11616;SDS011;5864;52.998;9.068;2023-02-28T11:56:02;2.90;;;1.30;;
11616;SDS011;5864;52.998;9.068;2023-02-28T11:58:58;1.83;;;1.30;;
11616;SDS011;5864;52.998;9.068;2023-02-28T12:05:11;2.73;;;1.27;;
11616;SDS011;5864;52.998;9.068;2023-02-28T12:08:11;2.33;;;1.50;;
11616;SDS011;5864;52.998;9.068;2023-02-28T12:11:09;1.70;;;1.47;;
11616;SDS011;5864;52.998;9.068;2023-02-28T12:14:06;1.70;;;1.37;;
11616;SDS011;5864;52.998;9.068;2023-02-28T12:17:05;1.50;;;1.40;;
11616;SDS011;5864;52.998;9.068;2023-02-28T12:20:05;2.20;;;1.17;;
11616;SDS011;5864;52.998;9.068;2023-02-28T12:23:10;1.73;;;1.30;;
11616;SDS011;5864;52.998;9.068;2023-02-28T12:26:08;1.67;;;1.33;;
11616;SDS011;5864;52.998;9.068;2023-02-28T12:29:02;2.07;;;1.40;;
11616;SDS011;5864;52.998;9.068;2023-02-28T12:31:55;1.40;;;1.30;;
11616;SDS011;5864;52.998;9.068;2023-02-28T12:34:46;1.37;;;1.10;;
11616;SDS011;5864;52.998;9.068;2023-02-28T12:37:36;2.07;;;1.40;;
11616;SDS011;5864;52.998;9.068;2023-02-28T12:40:28;1.40;;;1.10;;
11616;SDS011;5864;52.998;9.068;2023-02-28T12:43:27;2.80;;;1.70;;
11616;SDS011;5864;52.998;9.068;2023-02-28T12:46:19;1.20;;;1.10;;
11616;SDS011;5864;52.998;9.068;2023-02-28T12:49:09;2.97;;;1.30;;
11616;SDS011;5864;52.998;9.068;2023-02-28T12:52:00;1.60;;;1.17;;
11616;SDS011;5864;52.998;9.068;2023-02-28T12:54:50;2.80;;;2.40;;
11616;SDS011;5864;52.998;9.068;2023-02-28T12:57:42;1.47;;;1.37;;
11616;SDS011;5864;52.998;9.068;2023-02-28T13:00:37;1.30;;;1.20;;
11616;SDS011;5864;52.998;9.068;2023-02-28T13:03:38;2.10;;;1.90;;
11616;SDS011;5864;52.998;9.068;2023-02-28T13:06:39;1.50;;;1.40;;
11616;SDS011;5864;52.998;9.068;2023-02-28T13:09:41;1.47;;;1.30;;
11616;SDS011;5864;52.998;9.068;2023-02-28T13:12:38;2.53;;;1.30;;
11616;SDS011;5864;52.998;9.068;2023-02-28T13:15:33;1.83;;;1.60;;
11616;SDS011;5864;52.998;9.068;2023-02-28T13:18:27;2.97;;;1.47;;
11616;SDS011;5864;52.998;9.068;2023-02-28T13:21:22;2.30;;;1.60;;
11616;SDS011;5864;52.998;9.068;2023-02-28T13:24:08;4.67;;;2.00;;
11616;SDS011;5864;52.998;9.068;2023-02-28T13:40:29;1.50;;;1.20;;
11616;SDS011;5864;52.998;9.068;2023-02-28T13:43:20;2.70;;;1.40;;
11616;SDS011;5864;52.998;9.068;2023-02-28T13:46:29;2.07;;;1.57;;
11616;SDS011;5864;52.998;9.068;2023-02-28T13:49:19;1.60;;;1.50;;
11616;SDS011;5864;52.998;9.068;2023-02-28T13:52:11;1.50;;;1.40;;
11616;SDS011;5864;52.998;9.068;2023-02-28T13:55:21;1.50;;;1.40;;
11616;SDS011;5864;52.998;9.068;2023-02-28T13:58:19;1.60;;;1.40;;
11616;SDS011;5864;52.998;9.068;2023-02-28T14:07:43;3.80;;;1.53;;
11616;SDS011;5864;52.998;9.068;2023-02-28T14:10:33;4.40;;;1.53;;
11616;SDS011;5864;52.998;9.068;2023-02-28T14:13:37;2.07;;;1.50;;
11616;SDS011;5864;52.998;9.068;2023-02-28T14:16:28;2.47;;;1.80;;
11616;SDS011;5864;52.998;9.068;2023-02-28T14:19:25;2.73;;;1.47;;
11616;SDS011;5864;52.998;9.068;2023-02-28T14:22:16;1.83;;;1.60;;
11616;SDS011;5864;52.998;9.068;2023-02-28T14:25:27;1.43;;;1.33;;
11616;SDS011;5864;52.998;9.068;2023-02-28T14:28:18;1.77;;;1.53;;
11616;SDS011;5864;52.998;9.068;2023-02-28T14:31:22;2.80;;;1.40;;
11616;SDS011;5864;52.998;9.068;2023-02-28T14:34:17;1.93;;;1.50;;
11616;SDS011;5864;52.998;9.068;2023-02-28T14:37:16;1.43;;;1.33;;
11616;SDS011;5864;52.998;9.068;2023-02-28T14:40:11;1.73;;;1.60;;
11616;SDS011;5864;52.998;9.068;2023-02-28T14:43:01;2.50;;;1.70;;
11616;SDS011;5864;52.998;9.068;2023-02-28T14:45:49;3.27;;;1.60;;
11616;SDS011;5864;52.998;9.068;2023-02-28T14:48:36;2.30;;;1.53;;
11616;SDS011;5864;52.998;9.068;2023-02-28T14:51:22;1.63;;;1.43;;
11616;SDS011;5864;52.998;9.068;2023-02-28T14:54:13;2.07;;;1.70;;
11616;SDS011;5864;52.998;9.068;2023-02-28T14:57:00;2.57;;;1.80;;
11616;SDS011;5864;52.998;9.068;2023-02-28T14:59:46;2.90;;;1.50;;
11616;SDS011;5864;52.998;9.068;2023-02-28T15:02:33;2.53;;;1.70;;
11616;SDS011;5864;52.998;9.068;2023-02-28T15:05:22;3.53;;;2.33;;
11616;SDS011;5864;52.998;9.068;2023-02-28T15:08:11;1.43;;;1.30;;
11616;SDS011;5864;52.998;9.068;2023-02-28T15:11:01;2.00;;;1.50;;
11616;SDS011;5864;52.998;9.068;2023-02-28T15:13:49;15.60;;;9.77;;
11616;SDS011;5864;52.998;9.068;2023-02-28T15:16:39;7.07;;;4.00;;
11616;SDS011;5864;52.998;9.068;2023-02-28T15:19:27;2.67;;;1.50;;
11616;SDS011;5864;52.998;9.068;2023-02-28T15:22:16;3.77;;;1.80;;
11616;SDS011;5864;52.998;9.068;2023-02-28T15:25:06;1.83;;;1.60;;
11616;SDS011;5864;52.998;9.068;2023-02-28T15:27:56;3.57;;;1.83;;
11616;SDS011;5864;52.998;9.068;2023-02-28T15:30:50;3.00;;;1.83;;
11616;SDS011;5864;52.998;9.068;2023-02-28T15:33:36;3.53;;;1.70;;
11616;SDS011;5864;52.998;9.068;2023-02-28T15:36:24;2.70;;;1.57;;
11616;SDS011;5864;52.998;9.068;2023-02-28T15:39:18;2.40;;;2.20;;
11616;SDS011;5864;52.998;9.068;2023-02-28T15:42:11;2.87;;;1.80;;
11616;SDS011;5864;52.998;9.068;2023-02-28T15:44:58;4.70;;;2.37;;
11616;SDS011;5864;52.998;9.068;2023-02-28T15:47:44;2.10;;;1.70;;
11616;SDS011;5864;52.998;9.068;2023-02-28T15:50:31;3.20;;;2.00;;
11616;SDS011;5864;52.998;9.068;2023-02-28T15:53:18;3.57;;;2.57;;
11616;SDS011;5864;52.998;9.068;2023-02-28T15:56:21;6.00;;;4.40;;
11616;SDS011;5864;52.998;9.068;2023-02-28T15:59:13;5.00;;;2.90;;
11616;SDS011;5864;52.998;9.068;2023-02-28T16:02:13;4.43;;;2.80;;
11616;SDS011;5864;52.998;9.068;2023-02-28T16:05:12;3.23;;;2.60;;
11616;SDS011;5864;52.998;9.068;2023-02-28T16:08:11;2.20;;;1.83;;
11616;SDS011;5864;52.998;9.068;2023-02-28T16:11:00;3.77;;;1.60;;
11616;SDS011;5864;52.998;9.068;2023-02-28T16:13:45;4.83;;;2.10;;
11616;SDS011;5864;52.998;9.068;2023-02-28T16:16:31;4.10;;;2.13;;
11616;SDS011;5864;52.998;9.068;2023-02-28T16:19:20;4.17;;;2.70;;
11616;SDS011;5864;52.998;9.068;2023-02-28T16:22:07;3.27;;;2.43;;
11616;SDS011;5864;52.998;9.068;2023-02-28T16:24:53;3.70;;;2.13;;
11616;SDS011;5864;52.998;9.068;2023-02-28T16:27:39;4.70;;;2.00;;
11616;SDS011;5864;52.998;9.068;2023-02-28T16:30:26;4.20;;;2.83;;
11616;SDS011;5864;52.998;9.068;2023-02-28T16:33:15;3.83;;;2.23;;
11616;SDS011;5864;52.998;9.068;2023-02-28T16:36:03;2.83;;;1.93;;
11616;SDS011;5864;52.998;9.068;2023-02-28T16:38:51;3.93;;;1.70;;
11616;SDS011;5864;52.998;9.068;2023-02-28T16:41:36;1.70;;;1.60;;
11616;SDS011;5864;52.998;9.068;2023-02-28T16:44:24;3.03;;;1.70;;
11616;SDS011;5864;52.998;9.068;2023-02-28T16:47:12;5.83;;;4.10;;
11616;SDS011;5864;52.998;9.068;2023-02-28T16:49:58;25.73;;;14.73;;
11616;SDS011;5864;52.998;9.068;2023-02-28T16:52:45;19.10;;;12.50;;
11616;SDS011;5864;52.998;9.068;2023-02-28T16:55:31;21.63;;;14.20;;
11616;SDS011;5864;52.998;9.068;2023-02-28T16:58:17;20.23;;;13.40;;
11616;SDS011;5864;52.998;9.068;2023-02-28T17:01:05;21.17;;;14.37;;
11616;SDS011;5864;52.998;9.068;2023-02-28T17:03:50;14.43;;;8.80;;
11616;SDS011;5864;52.998;9.068;2023-02-28T17:06:36;5.87;;;4.17;;
11616;SDS011;5864;52.998;9.068;2023-02-28T17:09:24;4.80;;;3.33;;
11616;SDS011;5864;52.998;9.068;2023-02-28T17:12:10;3.43;;;2.20;;
11616;SDS011;5864;52.998;9.068;2023-02-28T17:14:56;2.13;;;1.93;;
11616;SDS011;5864;52.998;9.068;2023-02-28T17:17:41;2.73;;;2.17;;
11616;SDS011;5864;52.998;9.068;2023-02-28T17:20:29;2.83;;;1.90;;
11616;SDS011;5864;52.998;9.068;2023-02-28T17:23:15;2.80;;;2.00;;
11616;SDS011;5864;52.998;9.068;2023-02-28T17:26:03;2.60;;;1.90;;
11616;SDS011;5864;52.998;9.068;2023-02-28T17:28:50;2.73;;;2.17;;
11616;SDS011;5864;52.998;9.068;2023-02-28T17:31:37;2.43;;;2.20;;
11616;SDS011;5864;52.998;9.068;2023-02-28T17:34:23;3.33;;;2.63;;
11616;SDS011;5864;52.998;9.068;2023-02-28T17:37:09;5.17;;;3.03;;
11616;SDS011;5864;52.998;9.068;2023-02-28T17:39:55;6.43;;;3.30;;
11616;SDS011;5864;52.998;9.068;2023-02-28T17:42:42;6.03;;;3.60;;
11616;SDS011;5864;52.998;9.068;2023-02-28T17:45:28;7.50;;;4.10;;
11616;SDS011;5864;52.998;9.068;2023-02-28T17:48:13;6.90;;;3.83;;
11616;SDS011;5864;52.998;9.068;2023-02-28T17:50:59;4.97;;;3.27;;
11616;SDS011;5864;52.998;9.068;2023-02-28T17:53:45;5.20;;;2.70;;
11616;SDS011;5864;52.998;9.068;2023-02-28T17:56:31;6.17;;;3.10;;
11616;SDS011;5864;52.998;9.068;2023-02-28T17:59:19;4.27;;;3.27;;